KROW/ROW METAR and TAF weather

Enter ICAO airport designator
Station Type Date Time Source
KROW METAR 2020/01/18 23:51 UTC NOAA

KROW 182351Z 17005KT 10SM CLR 12/M07 A3033 RMK AO2 SLP252 T01171072 10133 20094 55004


Station Type Date Time Source
KROW Decoded METAR 2020/01/18 23:51 UTC NOAA

ROSWELL INDUSTRIAL AIR CENTR, NM, United States (KROW) 33-18N 104-32W 1112M
Jan 18, 2020 - 06:51 PM EST / 2020.01.18 2351 UTC
Wind: from the S (170 degrees) at 6 MPH (5 KT):0
Visibility: 10 mile(s):0
Sky conditions: clear
Temperature: 53.1 F (11.7 C)
Dew Point: 19.0 F (-7.2 C)
Relative Humidity: 25%
Pressure (altimeter): 30.33 in. Hg (1027 hPa)
Pressure tendency: 0.01 inches (0.4 hPa) lower than three hours ago
ob: KROW 182351Z 17005KT 10SM CLR 12/M07 A3033 RMK AO2 SLP252 T01171072 10133 20094 55004
cycle: 0

Station Type Date Time Source
KROW TAF 2020/01/18 18:39 UTC NOAA

TAF
AMD KROW 181736Z 1818/1918 08008KT P6SM SKC
FM182000 12009KT P6SM SKC
FM190000 16006KT P6SM FEW120

Example: see airport list